sensor_id;sensor_type;location;lat;lon;timestamp;pressure;altitude;pressure_sealevel;temperature;humidity
71907;BME280;59781;52.090;5.030;2023-05-20T00:00:08;102501.63;;;12.47;100.00
71907;BME280;59781;52.090;5.030;2023-05-20T00:02:35;102501.53;;;12.39;100.00
71907;BME280;59781;52.090;5.030;2023-05-20T00:05:02;102503.78;;;12.15;100.00
71907;BME280;59781;52.090;5.030;2023-05-20T00:07:28;102504.06;;;12.12;100.00
71907;BME280;59781;52.090;5.030;2023-05-20T00:09:53;102502.22;;;12.41;100.00
71907;BME280;59781;52.090;5.030;2023-05-20T00:12:19;102502.63;;;12.37;100.00
71907;BME280;59781;52.090;5.030;2023-05-20T00:14:45;102496.81;;;12.22;100.00
71907;BME280;59781;52.090;5.030;2023-05-20T00:17:10;102499.22;;;12.15;100.00
71907;BME280;59781;52.090;5.030;2023-05-20T00:19:36;102504.03;;;12.02;100.00
71907;BME280;59781;52.090;5.030;2023-05-20T00:22:02;102505.19;;;12.19;100.00
71907;BME280;59781;52.090;5.030;2023-05-20T00:24:27;102503.91;;;12.13;100.00
71907;BME280;59781;52.090;5.030;2023-05-20T00:26:53;102505.44;;;11.87;100.00
71907;BME280;59781;52.090;5.030;2023-05-20T00:29:20;102511.75;;;11.76;100.00
71907;BME280;59781;52.090;5.030;2023-05-20T00:31:47;102507.28;;;11.96;100.00
71907;BME280;59781;52.090;5.030;2023-05-20T00:34:13;102499.06;;;11.97;100.00
71907;BME280;59781;52.090;5.030;2023-05-20T00:36:38;102503.34;;;12.00;100.00
71907;BME280;59781;52.090;5.030;2023-05-20T00:39:04;102498.50;;;12.03;100.00
71907;BME280;59781;52.090;5.030;2023-05-20T00:41:31;102507.16;;;11.97;100.00
71907;BME280;59781;52.090;5.030;2023-05-20T00:43:57;102501.50;;;12.00;100.00
71907;BME280;59781;52.090;5.030;2023-05-20T00:46:25;102509.88;;;12.07;100.00
71907;BME280;59781;52.090;5.030;2023-05-20T00:48:53;102495.81;;;12.13;100.00
71907;BME280;59781;52.090;5.030;2023-05-20T00:51:20;102498.47;;;11.84;100.00
71907;BME280;59781;52.090;5.030;2023-05-20T00:53:46;102487.63;;;11.74;100.00
71907;BME280;59781;52.090;5.030;2023-05-20T00:56:13;102491.31;;;11.73;100.00
71907;BME280;59781;52.090;5.030;2023-05-20T00:58:39;102486.28;;;11.90;100.00
71907;BME280;59781;52.090;5.030;2023-05-20T01:01:05;102480.72;;;11.82;100.00
71907;BME280;59781;52.090;5.030;2023-05-20T01:03:31;102480.72;;;11.82;100.00
71907;BME280;59781;52.090;5.030;2023-05-20T01:05:57;102475.81;;;11.66;100.00
71907;BME280;59781;52.090;5.030;2023-05-20T01:08:24;102476.38;;;11.79;100.00
71907;BME280;59781;52.090;5.030;2023-05-20T01:11:15;102476.63;;;11.57;100.00
71907;BME280;59781;52.090;5.030;2023-05-20T01:13:57;102468.00;;;11.63;100.00
71907;BME280;59781;52.090;5.030;2023-05-20T01:16:29;102472.63;;;11.82;100.00
71907;BME280;59781;52.090;5.030;2023-05-20T01:18:58;102469.63;;;11.94;100.00
71907;BME280;59781;52.090;5.030;2023-05-20T01:21:29;102474.69;;;11.78;100.00
71907;BME280;59781;52.090;5.030;2023-05-20T01:23:56;102465.50;;;11.81;100.00
71907;BME280;59781;52.090;5.030;2023-05-20T01:26:22;102467.16;;;11.72;100.00
71907;BME280;59781;52.090;5.030;2023-05-20T01:28:51;102466.16;;;11.73;100.00
71907;BME280;59781;52.090;5.030;2023-05-20T01:31:23;102464.22;;;11.85;100.00
71907;BME280;59781;52.090;5.030;2023-05-20T01:33:55;102467.50;;;11.98;100.00
71907;BME280;59781;52.090;5.030;2023-05-20T01:36:25;102458.03;;;11.63;100.00
71907;BME280;59781;52.090;5.030;2023-05-20T01:38:53;102459.75;;;11.64;100.00
71907;BME280;59781;52.090;5.030;2023-05-20T01:41:23;102456.28;;;11.43;100.00
71907;BME280;59781;52.090;5.030;2023-05-20T01:43:52;102443.94;;;11.50;100.00
71907;BME280;59781;52.090;5.030;2023-05-20T01:46:19;102445.53;;;11.53;100.00
71907;BME280;59781;52.090;5.030;2023-05-20T01:48:47;102443.66;;;11.43;100.00
71907;BME280;59781;52.090;5.030;2023-05-20T01:51:12;102440.31;;;11.30;100.00
71907;BME280;59781;52.090;5.030;2023-05-20T01:53:39;102445.03;;;11.38;100.00
71907;BME280;59781;52.090;5.030;2023-05-20T01:56:05;102448.22;;;11.53;100.00
71907;BME280;59781;52.090;5.030;2023-05-20T01:58:30;102445.53;;;11.53;100.00
71907;BME280;59781;52.090;5.030;2023-05-20T02:00:56;102447.00;;;11.26;100.00
71907;BME280;59781;52.090;5.030;2023-05-20T02:03:22;102444.53;;;11.54;100.00
71907;BME280;59781;52.090;5.030;2023-05-20T02:05:48;102450.03;;;11.42;100.00
71907;BME280;59781;52.090;5.030;2023-05-20T02:08:13;102441.22;;;11.40;100.00
71907;BME280;59781;52.090;5.030;2023-05-20T02:10:39;102447.31;;;11.33;100.00
71907;BME280;59781;52.090;5.030;2023-05-20T02:13:05;102446.41;;;11.23;100.00
71907;BME280;59781;52.090;5.030;2023-05-20T02:15:31;102449.97;;;11.23;100.00
71907;BME280;59781;52.090;5.030;2023-05-20T02:17:57;102440.13;;;11.12;100.00
71907;BME280;59781;52.090;5.030;2023-05-20T02:20:23;102445.25;;;11.15;100.00
71907;BME280;59781;52.090;5.030;2023-05-20T02:22:49;102456.41;;;11.01;100.00
71907;BME280;59781;52.090;5.030;2023-05-20T02:25:14;102445.56;;;11.22;100.00
71907;BME280;59781;52.090;5.030;2023-05-20T02:27:42;102445.44;;;11.24;100.00
71907;BME280;59781;52.090;5.030;2023-05-20T02:30:08;102449.16;;;11.32;100.00
71907;BME280;59781;52.090;5.030;2023-05-20T02:32:34;102449.22;;;11.11;100.00
71907;BME280;59781;52.090;5.030;2023-05-20T02:35:00;102440.00;;;10.83;100.00
71907;BME280;59781;52.090;5.030;2023-05-20T02:37:27;102441.81;;;11.04;100.00
71907;BME280;59781;52.090;5.030;2023-05-20T02:39:53;102438.81;;;11.07;100.00
71907;BME280;59781;52.090;5.030;2023-05-20T02:42:20;102440.56;;;11.17;100.00
71907;BME280;59781;52.090;5.030;2023-05-20T02:44:46;102431.34;;;11.20;100.00
71907;BME280;59781;52.090;5.030;2023-05-20T02:47:12;102427.69;;;11.21;100.00
71907;BME280;59781;52.090;5.030;2023-05-20T02:49:38;102431.72;;;11.06;100.00
71907;BME280;59781;52.090;5.030;2023-05-20T02:52:04;102431.50;;;11.18;100.00
71907;BME280;59781;52.090;5.030;2023-05-20T02:54:30;102435.78;;;11.21;100.00
71907;BME280;59781;52.090;5.030;2023-05-20T02:56:56;102427.31;;;11.05;100.00
71907;BME280;59781;52.090;5.030;2023-05-20T02:59:22;102432.84;;;11.03;100.00
71907;BME280;59781;52.090;5.030;2023-05-20T03:01:47;102427.97;;;11.28;100.00
71907;BME280;59781;52.090;5.030;2023-05-20T03:04:13;102426.13;;;11.28;100.00
71907;BME280;59781;52.090;5.030;2023-05-20T03:06:39;102426.63;;;11.03;100.00
71907;BME280;59781;52.090;5.030;2023-05-20T03:09:08;102430.78;;;10.86;100.00
71907;BME280;59781;52.090;5.030;2023-05-20T03:11:34;102425.44;;;10.96;100.00
71907;BME280;59781;52.090;5.030;2023-05-20T03:14:00;102435.03;;;10.88;100.00
71907;BME280;59781;52.090;5.030;2023-05-20T03:16:25;102430.31;;;10.81;100.00
71907;BME280;59781;52.090;5.030;2023-05-20T03:18:52;102425.53;;;10.84;100.00
71907;BME280;59781;52.090;5.030;2023-05-20T03:21:18;102429.50;;;10.90;100.00
71907;BME280;59781;52.090;5.030;2023-05-20T03:23:44;102439.00;;;10.84;100.00
71907;BME280;59781;52.090;5.030;2023-05-20T03:26:10;102435.31;;;10.85;100.00
71907;BME280;59781;52.090;5.030;2023-05-20T03:28:36;102432.25;;;11.00;100.00
71907;BME280;59781;52.090;5.030;2023-05-20T03:31:02;102439.19;;;10.93;100.00
71907;BME280;59781;52.090;5.030;2023-05-20T03:33:29;102444.03;;;10.99;100.00
71907;BME280;59781;52.090;5.030;2023-05-20T03:35:55;102434.16;;;11.09;100.00
71907;BME280;59781;52.090;5.030;2023-05-20T03:38:21;102436.22;;;10.96;100.00
71907;BME280;59781;52.090;5.030;2023-05-20T03:40:47;102439.63;;;10.98;100.00
71907;BME280;59781;52.090;5.030;2023-05-20T03:43:13;102438.06;;;10.95;100.00
71907;BME280;59781;52.090;5.030;2023-05-20T03:45:38;102434.00;;;10.80;100.00
71907;BME280;59781;52.090;5.030;2023-05-20T03:48:06;102433.81;;;10.93;100.00
71907;BME280;59781;52.090;5.030;2023-05-20T03:50:33;102424.81;;;11.13;100.00
71907;BME280;59781;52.090;5.030;2023-05-20T03:52:59;102430.19;;;11.13;100.00
71907;BME280;59781;52.090;5.030;2023-05-20T03:55:26;102430.41;;;11.00;100.00
71907;BME280;59781;52.090;5.030;2023-05-20T03:57:53;102429.78;;;11.17;100.00
71907;BME280;59781;52.090;5.030;2023-05-20T04:00:19;102418.63;;;11.32;100.00
71907;BME280;59781;52.090;5.030;2023-05-20T04:02:47;102424.09;;;11.20;100.00
71907;BME280;59781;52.090;5.030;2023-05-20T04:05:16;102421.66;;;11.08;100.00
71907;BME280;59781;52.090;5.030;2023-05-20T04:07:42;102423.41;;;11.18;100.00
71907;BME280;59781;52.090;5.030;2023-05-20T04:10:08;102417.00;;;11.19;100.00
71907;BME280;59781;52.090;5.030;2023-05-20T04:12:34;102427.22;;;11.16;100.00
71907;BME280;59781;52.090;5.030;2023-05-20T04:15:02;102425.69;;;11.23;100.00
71907;BME280;59781;52.090;5.030;2023-05-20T04:17:33;102423.72;;;11.25;100.00
71907;BME280;59781;52.090;5.030;2023-05-20T04:19:58;102422.31;;;11.40;100.00
71907;BME280;59781;52.090;5.030;2023-05-20T04:22:25;102420.34;;;11.33;100.00
71907;BME280;59781;52.090;5.030;2023-05-20T04:24:51;102427.59;;;11.42;100.00
71907;BME280;59781;52.090;5.030;2023-05-20T04:27:17;102425.78;;;11.52;100.00
71907;BME280;59781;52.090;5.030;2023-05-20T04:29:43;102430.03;;;11.45;100.00
71907;BME280;59781;52.090;5.030;2023-05-20T04:32:13;102428.59;;;11.41;100.00
71907;BME280;59781;52.090;5.030;2023-05-20T04:34:39;102426.66;;;11.62;100.00
71907;BME280;59781;52.090;5.030;2023-05-20T04:37:05;102433.44;;;11.57;100.00
71907;BME280;59781;52.090;5.030;2023-05-20T04:39:34;102430.69;;;11.37;100.00
71907;BME280;59781;52.090;5.030;2023-05-20T04:42:04;102437.47;;;11.72;100.00
71907;BME280;59781;52.090;5.030;2023-05-20T04:44:30;102444.19;;;11.87;100.00
71907;BME280;59781;52.090;5.030;2023-05-20T04:46:56;102437.94;;;11.96;100.00
71907;BME280;59781;52.090;5.030;2023-05-20T04:49:25;102438.88;;;11.76;100.00
71907;BME280;59781;52.090;5.030;2023-05-20T04:51:51;102446.47;;;11.82;100.00
71907;BME280;59781;52.090;5.030;2023-05-20T04:54:19;102436.78;;;11.89;100.00
71907;BME280;59781;52.090;5.030;2023-05-20T04:56:45;102436.38;;;11.94;100.00
71907;BME280;59781;52.090;5.030;2023-05-20T04:59:12;102434.91;;;11.70;100.00
71907;BME280;59781;52.090;5.030;2023-05-20T05:01:39;102430.84;;;11.86;100.00
71907;BME280;59781;52.090;5.030;2023-05-20T05:04:05;102437.78;;;11.98;100.00
71907;BME280;59781;52.090;5.030;2023-05-20T05:06:30;102429.44;;;12.20;100.00
71907;BME280;59781;52.090;5.030;2023-05-20T05:08:57;102424.88;;;12.30;100.00
71907;BME280;59781;52.090;5.030;2023-05-20T05:11:24;102420.16;;;12.52;100.00
71907;BME280;59781;52.090;5.030;2023-05-20T05:13:50;102426.41;;;12.99;100.00
71907;BME280;59781;52.090;5.030;2023-05-20T05:16:18;102428.78;;;13.12;100.00
71907;BME280;59781;52.090;5.030;2023-05-20T05:18:44;102421.06;;;12.89;100.00
71907;BME280;59781;52.090;5.030;2023-05-20T05:21:10;102424.56;;;13.00;100.00
71907;BME280;59781;52.090;5.030;2023-05-20T05:23:35;102424.56;;;13.00;100.00
71907;BME280;59781;52.090;5.030;2023-05-20T05:26:01;102426.41;;;12.99;100.00
71907;BME280;59781;52.090;5.030;2023-05-20T05:28:28;102427.50;;;13.89;100.00
71907;BME280;59781;52.090;5.030;2023-05-20T05:30:54;102417.91;;;13.94;100.00
71907;BME280;59781;52.090;5.030;2023-05-20T05:33:21;102410.97;;;14.79;100.00
71907;BME280;59781;52.090;5.030;2023-05-20T05:35:47;102402.31;;;15.10;100.00
71907;BME280;59781;52.090;5.030;2023-05-20T05:38:13;102407.00;;;14.66;100.00
71907;BME280;59781;52.090;5.030;2023-05-20T05:40:39;102400.09;;;15.05;100.00
71907;BME280;59781;52.090;5.030;2023-05-20T05:43:05;102398.53;;;15.37;100.00
71907;BME280;59781;52.090;5.030;2023-05-20T05:45:32;102406.22;;;15.07;100.00
71907;BME280;59781;52.090;5.030;2023-05-20T05:47:58;102400.00;;;15.23;100.00
71907;BME280;59781;52.090;5.030;2023-05-20T05:50:24;102399.16;;;15.23;100.00
71907;BME280;59781;52.090;5.030;2023-05-20T05:52:50;102397.13;;;15.75;100.00
71907;BME280;59781;52.090;5.030;2023-05-20T05:55:16;102396.97;;;16.01;100.00
71907;BME280;59781;52.090;5.030;2023-05-20T05:57:43;102389.31;;;15.80;100.00
71907;BME280;59781;52.090;5.030;2023-05-20T06:00:11;102394.25;;;15.76;100.00
71907;BME280;59781;52.090;5.030;2023-05-20T06:02:44;102398.34;;;16.46;100.00
71907;BME280;59781;52.090;5.030;2023-05-20T06:05:13;102393.78;;;16.05;100.00
71907;BME280;59781;52.090;5.030;2023-05-20T06:07:39;102406.31;;;16.47;100.00
71907;BME280;59781;52.090;5.030;2023-05-20T06:10:05;102398.28;;;16.86;100.00
71907;BME280;59781;52.090;5.030;2023-05-20T06:12:31;102398.63;;;16.91;100.00
71907;BME280;59781;52.090;5.030;2023-05-20T06:14:56;102400.53;;;16.83;100.00
71907;BME280;59781;52.090;5.030;2023-05-20T06:17:22;102400.84;;;16.88;100.00
71907;BME280;59781;52.090;5.030;2023-05-20T06:19:48;102403.03;;;16.92;100.00
71907;BME280;59781;52.090;5.030;2023-05-20T06:22:15;102399.06;;;17.11;100.00
71907;BME280;59781;52.090;5.030;2023-05-20T06:24:41;102403.94;;;16.69;100.00
71907;BME280;59781;52.090;5.030;2023-05-20T06:27:06;102390.69;;;17.83;100.00
71907;BME280;59781;52.090;5.030;2023-05-20T06:29:32;102395.78;;;17.86;100.00
71907;BME280;59781;52.090;5.030;2023-05-20T06:31:58;102393.75;;;17.49;100.00
71907;BME280;59781;52.090;5.030;2023-05-20T06:34:24;102398.88;;;18.29;98.49
71907;BME280;59781;52.090;5.030;2023-05-20T06:36:50;102394.91;;;18.31;100.00
71907;BME280;59781;52.090;5.030;2023-05-20T06:39:17;102391.94;;;18.56;99.15
71907;BME280;59781;52.090;5.030;2023-05-20T06:41:43;102382.28;;;19.12;94.34
71907;BME280;59781;52.090;5.030;2023-05-20T06:44:17;102382.13;;;18.32;97.52
71907;BME280;59781;52.090;5.030;2023-05-20T06:46:57;102384.91;;;18.24;100.00
71907;BME280;59781;52.090;5.030;2023-05-20T06:49:23;102375.59;;;19.15;97.48
71907;BME280;59781;52.090;5.030;2023-05-20T06:51:50;102372.81;;;18.79;92.93
71907;BME280;59781;52.090;5.030;2023-05-20T06:54:15;102374.44;;;18.50;95.96
71907;BME280;59781;52.090;5.030;2023-05-20T06:56:42;102368.94;;;18.88;94.08
71907;BME280;59781;52.090;5.030;2023-05-20T06:59:08;102376.97;;;18.52;95.18
71907;BME280;59781;52.090;5.030;2023-05-20T07:01:35;102369.53;;;19.34;92.47
71907;BME280;59781;52.090;5.030;2023-05-20T07:04:01;102373.09;;;18.46;93.67
71907;BME280;59781;52.090;5.030;2023-05-20T07:06:27;102372.78;;;18.94;89.54
71907;BME280;59781;52.090;5.030;2023-05-20T07:08:56;102372.25;;;18.69;92.71
71907;BME280;59781;52.090;5.030;2023-05-20T07:11:22;102371.03;;;18.48;92.86
71907;BME280;59781;52.090;5.030;2023-05-20T07:13:49;102372.97;;;18.77;88.85
71907;BME280;59781;52.090;5.030;2023-05-20T07:16:15;102359.69;;;19.04;88.92
71907;BME280;59781;52.090;5.030;2023-05-20T07:18:45;102367.28;;;18.49;89.85
71907;BME280;59781;52.090;5.030;2023-05-20T07:21:11;102366.69;;;18.91;90.01
71907;BME280;59781;52.090;5.030;2023-05-20T07:23:48;102361.34;;;19.34;87.52
71907;BME280;59781;52.090;5.030;2023-05-20T07:26:14;102360.50;;;19.55;88.48
71907;BME280;59781;52.090;5.030;2023-05-20T07:28:40;102354.59;;;19.52;85.91
71907;BME280;59781;52.090;5.030;2023-05-20T07:31:05;102355.72;;;19.21;87.61
71907;BME280;59781;52.090;5.030;2023-05-20T07:33:37;102354.31;;;19.46;89.93
71907;BME280;59781;52.090;5.030;2023-05-20T07:36:03;102354.81;;;19.35;87.85
71907;BME280;59781;52.090;5.030;2023-05-20T07:38:28;102340.72;;;20.39;82.21
71907;BME280;59781;52.090;5.030;2023-05-20T07:40:58;102345.69;;;19.79;82.63
71907;BME280;59781;52.090;5.030;2023-05-20T07:43:24;102344.22;;;20.04;82.10
71907;BME280;59781;52.090;5.030;2023-05-20T07:45:50;102346.41;;;19.52;82.12
71907;BME280;59781;52.090;5.030;2023-05-20T07:48:16;102337.13;;;20.10;79.76
71907;BME280;59781;52.090;5.030;2023-05-20T07:50:43;102334.91;;;20.48;78.08
71907;BME280;59781;52.090;5.030;2023-05-20T07:53:09;102335.28;;;21.21;76.21
71907;BME280;59781;52.090;5.030;2023-05-20T07:55:35;102335.66;;;21.11;75.87
71907;BME280;59781;52.090;5.030;2023-05-20T07:58:03;102326.81;;;21.09;75.23
71907;BME280;59781;52.090;5.030;2023-05-20T08:00:31;102322.81;;;21.93;72.06
71907;BME280;59781;52.090;5.030;2023-05-20T08:03:01;102315.19;;;21.68;73.42
71907;BME280;59781;52.090;5.030;2023-05-20T08:05:36;102330.22;;;22.12;70.78
71907;BME280;59781;52.090;5.030;2023-05-20T08:08:04;102315.81;;;21.70;69.83
71907;BME280;59781;52.090;5.030;2023-05-20T08:10:39;102324.66;;;21.59;71.12
71907;BME280;59781;52.090;5.030;2023-05-20T08:13:05;102313.53;;;22.27;74.10
71907;BME280;59781;52.090;5.030;2023-05-20T08:15:31;102325.84;;;21.30;71.64
71907;BME280;59781;52.090;5.030;2023-05-20T08:17:56;102328.03;;;21.55;71.95
71907;BME280;59781;52.090;5.030;2023-05-20T08:20:22;102336.63;;;20.90;72.35
71907;BME280;59781;52.090;5.030;2023-05-20T08:22:51;102331.19;;;20.97;68.97
71907;BME280;59781;52.090;5.030;2023-05-20T08:25:16;102319.81;;;21.55;66.47
71907;BME280;59781;52.090;5.030;2023-05-20T08:27:43;102326.84;;;22.10;67.84
71907;BME280;59781;52.090;5.030;2023-05-20T08:30:09;102331.78;;;21.40;66.42
71907;BME280;59781;52.090;5.030;2023-05-20T08:32:35;102317.41;;;20.77;67.03
71907;BME280;59781;52.090;5.030;2023-05-20T08:35:02;102320.97;;;21.26;70.00
71907;BME280;59781;52.090;5.030;2023-05-20T08:37:28;102313.28;;;21.69;69.55
71907;BME280;59781;52.090;5.030;2023-05-20T08:39:55;102314.75;;;21.71;66.73
71907;BME280;59781;52.090;5.030;2023-05-20T08:42:22;102308.91;;;22.27;64.84
71907;BME280;59781;52.090;5.030;2023-05-20T08:44:51;102301.31;;;22.23;64.63
71907;BME280;59781;52.090;5.030;2023-05-20T08:47:19;102321.13;;;21.11;64.22
71907;BME280;59781;52.090;5.030;2023-05-20T08:49:48;102302.16;;;22.23;62.54
71907;BME280;59781;52.090;5.030;2023-05-20T08:52:17;102301.31;;;21.09;64.46
71907;BME280;59781;52.090;5.030;2023-05-20T08:54:48;102299.56;;;21.56;66.38
71907;BME280;59781;52.090;5.030;2023-05-20T08:57:15;102286.09;;;21.81;61.95
71907;BME280;59781;52.090;5.030;2023-05-20T08:59:44;102297.28;;;21.86;62.71
71907;BME280;59781;52.090;5.030;2023-05-20T09:02:14;102291.31;;;21.42;65.67
71907;BME280;59781;52.090;5.030;2023-05-20T09:04:40;102300.22;;;21.03;63.44
71907;BME280;59781;52.090;5.030;2023-05-20T09:07:05;102292.63;;;20.99;62.95
71907;BME280;59781;52.090;5.030;2023-05-20T09:09:33;102281.28;;;22.94;59.53
71907;BME280;59781;52.090;5.030;2023-05-20T09:12:01;102269.13;;;23.14;58.15
71907;BME280;59781;52.090;5.030;2023-05-20T09:14:31;102275.50;;;23.40;58.79
71907;BME280;59781;52.090;5.030;2023-05-20T09:16:58;102277.97;;;23.61;58.09
71907;BME280;59781;52.090;5.030;2023-05-20T09:19:24;102266.88;;;22.20;58.06
71907;BME280;59781;52.090;5.030;2023-05-20T09:21:53;102272.16;;;23.38;56.81
71907;BME280;59781;52.090;5.030;2023-05-20T09:24:23;102269.09;;;23.53;55.73
71907;BME280;59781;52.090;5.030;2023-05-20T09:26:50;102263.81;;;24.69;56.98
71907;BME280;59781;52.090;5.030;2023-05-20T09:29:16;102269.50;;;23.25;56.77
71907;BME280;59781;52.090;5.030;2023-05-20T09:31:44;102255.91;;;22.27;56.91
71907;BME280;59781;52.090;5.030;2023-05-20T09:34:10;102253.00;;;24.06;53.98
71907;BME280;59781;52.090;5.030;2023-05-20T09:36:38;102249.78;;;22.18;54.86
71907;BME280;59781;52.090;5.030;2023-05-20T09:39:13;102252.31;;;22.26;54.61
71907;BME280;59781;52.090;5.030;2023-05-20T09:42:00;102244.81;;;22.67;53.02
71907;BME280;59781;52.090;5.030;2023-05-20T09:44:31;102252.63;;;21.04;58.07
71907;BME280;59781;52.090;5.030;2023-05-20T09:46:58;102244.66;;;21.23;57.48
71907;BME280;59781;52.090;5.030;2023-05-20T09:49:27;102255.31;;;20.84;60.25
71907;BME280;59781;52.090;5.030;2023-05-20T09:51:57;102245.25;;;21.11;58.87
71907;BME280;59781;52.090;5.030;2023-05-20T09:54:27;102248.41;;;22.60;56.88
71907;BME280;59781;52.090;5.030;2023-05-20T09:56:56;102248.47;;;20.67;58.70
71907;BME280;59781;52.090;5.030;2023-05-20T09:59:25;102249.38;;;20.81;59.08
71907;BME280;59781;52.090;5.030;2023-05-20T10:01:51;102245.31;;;21.25;58.21
71907;BME280;59781;52.090;5.030;2023-05-20T10:04:19;102243.22;;;21.27;56.79
71907;BME280;59781;52.090;5.030;2023-05-20T10:06:55;102231.56;;;20.50;58.18
71907;BME280;59781;52.090;5.030;2023-05-20T10:09:53;102243.56;;;21.10;57.90
71907;BME280;59781;52.090;5.030;2023-05-20T10:12:59;102242.75;;;21.16;57.44
71907;BME280;59781;52.090;5.030;2023-05-20T10:15:54;102235.22;;;22.11;58.46
71907;BME280;59781;52.090;5.030;2023-05-20T10:18:55;102233.03;;;21.07;58.77
71907;BME280;59781;52.090;5.030;2023-05-20T10:21:31;102222.56;;;22.10;56.80
71907;BME280;59781;52.090;5.030;2023-05-20T10:24:07;102214.97;;;22.77;55.79
71907;BME280;59781;52.090;5.030;2023-05-20T10:26:39;102220.91;;;21.63;58.79
71907;BME280;59781;52.090;5.030;2023-05-20T10:29:16;102215.97;;;21.18;57.05
71907;BME280;59781;52.090;5.030;2023-05-20T10:31:44;102222.03;;;20.94;57.28
71907;BME280;59781;52.090;5.030;2023-05-20T10:34:18;102215.09;;;20.98;58.28
71907;BME280;59781;52.090;5.030;2023-05-20T10:36:56;102201.94;;;21.35;56.88
71907;BME280;59781;52.090;5.030;2023-05-20T10:39:30;102196.81;;;22.24;56.12
71907;BME280;59781;52.090;5.030;2023-05-20T10:42:07;102192.66;;;21.75;55.72
71907;BME280;59781;52.090;5.030;2023-05-20T10:44:45;102188.63;;;21.52;56.95
71907;BME280;59781;52.090;5.030;2023-05-20T10:47:12;102200.97;;;20.95;57.40
71907;BME280;59781;52.090;5.030;2023-05-20T10:49:45;102193.06;;;21.59;56.88
71907;BME280;59781;52.090;5.030;2023-05-20T10:52:12;102190.31;;;22.64;55.95
71907;BME280;59781;52.090;5.030;2023-05-20T10:55:17;102188.13;;;20.95;57.33
71907;BME280;59781;52.090;5.030;2023-05-20T10:57:44;102195.16;;;21.31;57.28
71907;BME280;59781;52.090;5.030;2023-05-20T11:00:11;102171.88;;;22.26;57.07
71907;BME280;59781;52.090;5.030;2023-05-20T11:02:38;102180.00;;;21.74;55.44
71907;BME280;59781;52.090;5.030;2023-05-20T11:05:05;102181.66;;;21.82;54.75
71907;BME280;59781;52.090;5.030;2023-05-20T11:07:35;102172.59;;;21.75;55.79
71907;BME280;59781;52.090;5.030;2023-05-20T11:10:01;102171.22;;;22.30;53.83
71907;BME280;59781;52.090;5.030;2023-05-20T11:12:32;102171.06;;;21.00;56.32
71907;BME280;59781;52.090;5.030;2023-05-20T11:14:57;102171.84;;;20.67;56.69
71907;BME280;59781;52.090;5.030;2023-05-20T11:17:23;102178.63;;;20.37;58.10
71907;BME280;59781;52.090;5.030;2023-05-20T11:19:49;102174.31;;;20.62;57.99
71907;BME280;59781;52.090;5.030;2023-05-20T11:22:15;102169.88;;;21.48;56.01
71907;BME280;59781;52.090;5.030;2023-05-20T11:24:40;102164.06;;;23.12;53.20
71907;BME280;59781;52.090;5.030;2023-05-20T11:27:06;102158.72;;;23.74;53.13
71907;BME280;59781;52.090;5.030;2023-05-20T11:29:32;102163.63;;;22.84;53.45
71907;BME280;59781;52.090;5.030;2023-05-20T11:31:59;102160.75;;;23.29;51.87
71907;BME280;59781;52.090;5.030;2023-05-20T11:34:33;102157.88;;;22.47;52.40
71907;BME280;59781;52.090;5.030;2023-05-20T11:37:00;102152.66;;;22.32;55.27
71907;BME280;59781;52.090;5.030;2023-05-20T11:39:29;102157.63;;;22.49;53.93
71907;BME280;59781;52.090;5.030;2023-05-20T11:41:56;102157.53;;;22.24;51.08
71907;BME280;59781;52.090;5.030;2023-05-20T11:44:23;102152.50;;;23.04;50.60
71907;BME280;59781;52.090;5.030;2023-05-20T11:46:49;102149.53;;;23.30;49.10
71907;BME280;59781;52.090;5.030;2023-05-20T11:49:15;102147.63;;;23.56;49.15
71907;BME280;59781;52.090;5.030;2023-05-20T11:51:43;102149.06;;;23.08;49.14
71907;BME280;59781;52.090;5.030;2023-05-20T11:54:09;102141.84;;;22.82;51.27
71907;BME280;59781;52.090;5.030;2023-05-20T11:56:36;102152.09;;;23.00;51.33
71907;BME280;59781;52.090;5.030;2023-05-20T11:59:04;102138.63;;;23.24;50.72
71907;BME280;59781;52.090;5.030;2023-05-20T12:01:36;102144.47;;;22.06;51.48
71907;BME280;59781;52.090;5.030;2023-05-20T12:04:08;102131.13;;;22.74;51.96
71907;BME280;59781;52.090;5.030;2023-05-20T12:06:35;102129.13;;;23.19;50.40
71907;BME280;59781;52.090;5.030;2023-05-20T12:09:06;102129.09;;;22.56;50.27
71907;BME280;59781;52.090;5.030;2023-05-20T12:11:37;102125.56;;;21.85;52.00
71907;BME280;59781;52.090;5.030;2023-05-20T12:14:07;102115.72;;;22.22;51.87
71907;BME280;59781;52.090;5.030;2023-05-20T12:16:34;102110.91;;;23.25;52.22
71907;BME280;59781;52.090;5.030;2023-05-20T12:19:00;102117.16;;;22.38;51.95
71907;BME280;59781;52.090;5.030;2023-05-20T12:21:29;102111.44;;;22.39;51.40
71907;BME280;59781;52.090;5.030;2023-05-20T12:23:57;102117.72;;;22.53;52.30
71907;BME280;59781;52.090;5.030;2023-05-20T12:26:24;102112.28;;;22.84;51.41
71907;BME280;59781;52.090;5.030;2023-05-20T12:28:54;102109.88;;;22.05;54.90
71907;BME280;59781;52.090;5.030;2023-05-20T12:31:20;102111.00;;;21.71;54.93
71907;BME280;59781;52.090;5.030;2023-05-20T12:33:46;102136.09;;;21.02;56.66
71907;BME280;59781;52.090;5.030;2023-05-20T12:36:13;102110.84;;;22.30;53.59
71907;BME280;59781;52.090;5.030;2023-05-20T12:38:39;102106.88;;;22.65;53.92
71907;BME280;59781;52.090;5.030;2023-05-20T12:41:05;102116.22;;;21.99;55.41
71907;BME280;59781;52.090;5.030;2023-05-20T12:43:31;102108.28;;;21.58;54.81
71907;BME280;59781;52.090;5.030;2023-05-20T12:45:57;102104.84;;;21.82;55.55
71907;BME280;59781;52.090;5.030;2023-05-20T12:48:22;102092.53;;;23.87;53.54